Terminal Aerodrome Forecast
Issued by NWS Cleveland, OH

Home | Current Version | Previous Version | Text Only | Print | Product List | Glossary Off
Versions: 1 2 3 4 5 6 7 8 9 10 11 12 13 14 15 16 17

000
FTUS41 KCLE 291400 AAA
TAFMFD
TAF AMD
KMFD 291453Z 2915/3012 18017G23KT 6SM -RA BKN045 OVC060
     FM291700 20014G22KT 2SM -DZ BR SCT006 OVC012
      TEMPO 2920/2922 2SM -RASN OVC006
     FM292200 28018G30KT 2SM -SN BR OVC002
     FM300100 30015G25KT 4SM BR BKN008 OVC015=

USA.gov is the U.S. government's official web portal to all federal, state and local government web resources and services.